Time;durP1;ratioP1;P1;durP2;ratioP2;P2;SDS_P1;SDS_P2;PMS_P1;PMS_P2;Temp;Humidity;BMP_temperature;BMP_pressure;BME280_temperature;BME280_humidity;BME280_pressure;Samples;Min_cycle;Max_cycle;Signal;HPM_P1;HPM_P2
2023/05/28 00:02:20;;;;;;;;;;;;;;;22.31;62.31;101019.41;5032514;28;19925;-86
2023/05/28 00:04:46;;;;;;;;;;;;;;;22.29;62.41;101013.19;5013536;28;20325;-86
2023/05/28 00:07:11;;;;;;;;;;;;;;;22.34;61.45;101010.56;5026541;28;20305;-86
2023/05/28 00:09:37;;;;;;;;;;;;;;;22.32;61.82;101009.66;5030342;28;19921;-85
2023/05/28 00:12:03;;;;;;;;;;;;;;;22.31;61.25;101010.56;5037535;28;20267;-86
2023/05/28 00:14:28;;;;;;;;;;;;;;;22.28;61.53;101008.72;5042713;28;19927;-86
2023/05/28 00:16:55;;;;;;;;;;;;;;;22.30;61.52;101011.41;5014574;28;20028;-86
2023/05/28 00:19:21;;;;;;;;;;;;;;;22.27;61.47;100996.31;5040910;28;20314;-86
2023/05/28 00:21:47;;;;;;;;;;;;;;;22.29;61.70;100999.88;5037356;28;19925;-86
2023/05/28 00:24:12;;;;;;;;;;;;;;;22.28;61.12;100998.06;5035827;28;19928;-86
2023/05/28 00:26:38;;;;;;;;;;;;;;;22.30;62.02;100999.00;5013602;28;19918;-86
2023/05/28 00:29:03;;;;;;;;;;;;;;;22.28;61.33;100999.84;5020025;28;19932;-86
2023/05/28 00:31:29;;;;;;;;;;;;;;;22.24;61.14;100998.03;5023470;28;20012;-86
2023/05/28 00:33:56;;;;;;;;;;;;;;;22.26;61.57;100989.19;5034817;28;19971;-86
2023/05/28 00:36:21;;;;;;;;;;;;;;;22.25;61.21;100990.09;5010868;28;20011;-86
2023/05/28 00:38:47;;;;;;;;;;;;;;;22.24;61.63;100995.38;5014549;28;20374;-86
2023/05/28 00:41:12;;;;;;;;;;;;;;;22.19;61.96;100984.66;5016465;28;19987;-86
2023/05/28 00:43:38;;;;;;;;;;;;;;;22.21;61.90;100998.88;5020193;28;20313;-86
2023/05/28 00:46:04;;;;;;;;;;;;;;;22.23;61.61;100999.81;5032540;28;20302;-86
2023/05/28 00:48:30;;;;;;;;;;;;;;;22.23;61.87;100998.94;5031017;28;20010;-86
2023/05/28 00:50:56;;;;;;;;;;;;;;;22.22;62.01;100989.13;5017110;28;19928;-86
2023/05/28 00:53:21;;;;;;;;;;;;;;;22.21;61.57;100990.00;5046258;28;19920;-86
2023/05/28 00:55:48;;;;;;;;;;;;;;;22.20;61.70;100988.22;5005947;28;19928;-86
2023/05/28 00:58:15;;;;;;;;;;;;;;;22.20;61.75;100982.91;5013086;28;20016;-86
2023/05/28 01:00:43;;;;;;;;;;;;;;;22.17;61.56;100989.97;5019790;28;20286;-86
2023/05/28 01:03:09;;;;;;;;;;;;;;;22.22;62.00;100987.34;5033016;28;19921;-86
2023/05/28 01:05:34;;;;;;;;;;;;;;;22.16;62.33;100988.19;5036141;28;19980;-85
2023/05/28 01:08:00;;;;;;;;;;;;;;;22.16;61.54;100984.63;5022728;28;20417;-86
2023/05/28 01:10:26;;;;;;;;;;;;;;;22.20;62.55;100980.22;5034980;28;20384;-85
2023/05/28 01:12:52;;;;;;;;;;;;;;;22.19;62.25;100981.13;5049553;28;19927;-85
2023/05/28 01:15:17;;;;;;;;;;;;;;;22.17;62.35;100983.75;5005149;28;19921;-85
2023/05/28 01:17:44;;;;;;;;;;;;;;;22.14;61.98;100974.00;5046901;28;19928;-84
2023/05/28 01:20:13;;;;;;;;;;;;;;;22.17;61.37;100975.78;5022834;28;19917;-86
2023/05/28 01:22:39;;;;;;;;;;;;;;;22.12;61.14;100969.53;5050802;28;20508;-85
2023/05/28 01:25:09;;;;;;;;;;;;;;;22.12;61.79;100973.09;5031011;28;20000;-85
2023/05/28 01:27:37;;;;;;;;;;;;;;;22.14;62.05;100970.44;5046750;28;19921;-85
2023/05/28 01:30:04;;;;;;;;;;;;;;;22.14;61.88;100968.66;5047781;28;19925;-85
2023/05/28 01:32:29;;;;;;;;;;;;;;;22.14;61.84;100971.34;5047187;28;20348;-86
2023/05/28 01:34:55;;;;;;;;;;;;;;;22.12;62.11;100972.19;5052712;28;20382;-86
2023/05/28 01:37:21;;;;;;;;;;;;;;;22.12;61.76;100966.88;5036797;28;19916;-85
2023/05/28 01:39:47;;;;;;;;;;;;;;;22.13;62.44;100972.19;5032556;28;19917;-86
2023/05/28 01:42:12;;;;;;;;;;;;;;;22.12;61.94;100973.09;5038335;28;19980;-86
2023/05/28 01:44:38;;;;;;;;;;;;;;;22.12;61.79;100975.75;5055295;28;19921;-86
2023/05/28 01:47:04;;;;;;;;;;;;;;;22.11;61.56;100978.38;5061410;28;19924;-86
2023/05/28 01:49:29;;;;;;;;;;;;;;;22.11;62.16;100978.38;5050266;28;19916;-86
2023/05/28 01:51:55;;;;;;;;;;;;;;;22.10;61.83;100981.94;5025126;28;19926;-85
2023/05/28 01:54:21;;;;;;;;;;;;;;;22.12;61.79;100980.19;5032792;28;19925;-86
2023/05/28 01:56:46;;;;;;;;;;;;;;;22.09;61.58;100973.03;5012480;28;19948;-86
2023/05/28 01:59:12;;;;;;;;;;;;;;;22.10;61.72;100976.59;5062922;28;19920;-86
2023/05/28 02:01:40;;;;;;;;;;;;;;;22.11;62.04;100986.34;5057379;28;20486;-86
2023/05/28 02:04:05;;;;;;;;;;;;;;;22.10;61.90;100980.16;5045383;28;19921;-86
2023/05/28 02:06:31;;;;;;;;;;;;;;;22.06;61.45;100988.09;5036283;28;20307;-86
2023/05/28 02:08:57;;;;;;;;;;;;;;;22.07;61.85;100990.75;5022111;28;19921;-85
2023/05/28 02:11:24;;;;;;;;;;;;;;;22.07;61.27;100981.88;5030602;28;19948;-86
2023/05/28 02:13:50;;;;;;;;;;;;;;;22.09;61.97;100974.81;5029025;28;19928;-86
2023/05/28 02:16:17;;;;;;;;;;;;;;;22.09;62.45;100980.13;5022433;28;20412;-86
2023/05/28 02:18:43;;;;;;;;;;;;;;;22.07;61.51;100979.22;5026860;28;19944;-86
2023/05/28 02:21:08;;;;;;;;;;;;;;;22.08;61.93;100987.22;5038160;28;20394;-87
2023/05/28 02:23:34;;;;;;;;;;;;;;;22.09;62.04;100982.78;5016579;28;19924;-86
2023/05/28 02:26:00;;;;;;;;;;;;;;;22.04;61.74;100988.06;5022374;28;20452;-86
2023/05/28 02:28:26;;;;;;;;;;;;;;;22.11;61.58;100986.34;5036787;28;19936;-86
2023/05/28 02:30:51;;;;;;;;;;;;;;;22.04;61.73;100985.41;5001803;28;19921;-86
2023/05/28 02:33:17;;;;;;;;;;;;;;;22.06;62.05;100983.66;5005281;28;20366;-85
2023/05/28 02:35:42;;;;;;;;;;;;;;;22.04;61.74;100980.09;5017234;28;20003;-85
2023/05/28 02:38:08;;;;;;;;;;;;;;;22.03;61.81;100982.72;5003610;28;20064;-85
2023/05/28 02:40:33;;;;;;;;;;;;;;;22.05;61.80;100984.50;5023368;28;19924;-86
2023/05/28 02:42:58;;;;;;;;;;;;;;;22.04;61.85;100982.75;5008475;28;19921;-86
2023/05/28 02:45:24;;;;;;;;;;;;;;;22.06;62.29;100985.44;5014667;28;19932;-86
2023/05/28 02:47:49;;;;;;;;;;;;;;;22.01;62.32;101001.31;5041079;28;20446;-85
2023/05/28 02:50:15;;;;;;;;;;;;;;;21.89;61.75;100996.78;5034092;28;19964;-86
2023/05/28 02:52:40;;;;;;;;;;;;;;;21.86;62.26;100998.50;5018564;28;19928;-85
2023/05/28 02:55:06;;;;;;;;;;;;;;;21.84;62.00;101000.25;5026284;28;20012;-86
2023/05/28 02:57:31;;;;;;;;;;;;;;;21.81;61.77;101002.88;5033565;28;19917;-86
2023/05/28 02:59:57;;;;;;;;;;;;;;;21.89;61.64;101003.88;5030473;28;19918;-85
2023/05/28 03:02:22;;;;;;;;;;;;;;;21.84;61.82;101010.88;5038171;28;20023;-85
2023/05/28 03:04:48;;;;;;;;;;;;;;;21.81;61.73;101006.41;5048844;28;20297;-84
2023/05/28 03:07:13;;;;;;;;;;;;;;;21.88;62.14;101008.25;5039535;28;19954;-85
2023/05/28 03:09:38;;;;;;;;;;;;;;;21.91;61.76;101012.75;5066138;28;20354;-86
2023/05/28 03:12:04;;;;;;;;;;;;;;;21.85;61.90;101015.34;5026718;28;20398;-83
2023/05/28 03:14:30;;;;;;;;;;;;;;;21.83;62.29;101019.75;5029886;28;19921;-83
2023/05/28 03:16:55;;;;;;;;;;;;;;;21.84;61.99;101016.19;5054449;28;19920;-86
2023/05/28 03:19:21;;;;;;;;;;;;;;;21.88;61.73;101012.69;5046594;28;19925;-86
2023/05/28 03:21:46;;;;;;;;;;;;;;;21.86;61.77;101012.66;5052666;28;20360;-85
2023/05/28 03:24:12;;;;;;;;;;;;;;;21.90;61.64;101011.84;5055440;28;20402;-84
2023/05/28 03:26:37;;;;;;;;;;;;;;;21.89;61.58;101010.06;5027787;28;19936;-84
2023/05/28 03:29:03;;;;;;;;;;;;;;;21.88;61.86;101005.59;5050784;28;20376;-84
2023/05/28 03:31:31;;;;;;;;;;;;;;;21.91;61.69;101010.09;5016677;28;20042;-85
2023/05/28 03:33:57;;;;;;;;;;;;;;;21.87;61.91;101016.25;5030988;28;19920;-85
2023/05/28 03:36:24;;;;;;;;;;;;;;;21.89;62.13;101010.06;5062709;28;19925;-85
2023/05/28 03:38:50;;;;;;;;;;;;;;;21.87;62.35;101003.84;5045220;28;20377;-85
2023/05/28 03:44:47;;;;;;;;;;;;;;;21.90;62.14;101017.16;5036367;28;19928;-85
2023/05/28 03:47:13;;;;;;;;;;;;;;;21.87;62.24;101014.47;5032170;28;19924;-85
2023/05/28 03:49:38;;;;;;;;;;;;;;;21.89;62.04;101019.81;5032730;28;20087;-84
2023/05/28 03:52:04;;;;;;;;;;;;;;;21.83;61.42;101017.09;5047315;28;19924;-85
2023/05/28 03:54:30;;;;;;;;;;;;;;;21.88;62.02;101016.25;5051143;28;20324;-84
2023/05/28 03:56:55;;;;;;;;;;;;;;;21.90;62.19;101016.25;5033255;28;19936;-84
2023/05/28 03:59:20;;;;;;;;;;;;;;;21.87;62.66;101022.44;5049891;28;19947;-85
2023/05/28 04:01:46;;;;;;;;;;;;;;;21.87;61.81;101025.09;5033819;28;20305;-85
2023/05/28 04:04:12;;;;;;;;;;;;;;;21.88;62.39;101026.00;5011624;28;19921;-85
2023/05/28 04:06:37;;;;;;;;;;;;;;;21.87;61.98;101027.75;5018195;28;19920;-85
2023/05/28 04:09:03;;;;;;;;;;;;;;;21.86;61.67;101031.28;5027606;28;20629;-85
2023/05/28 04:11:29;;;;;;;;;;;;;;;21.87;61.82;101035.75;5045693;28;19960;-86
2023/05/28 04:13:55;;;;;;;;;;;;;;;21.88;61.94;101040.16;5008241;28;19964;-86
2023/05/28 04:16:22;;;;;;;;;;;;;;;21.88;62.32;101032.19;5009120;28;20341;-85
2023/05/28 04:18:52;;;;;;;;;;;;;;;21.88;62.14;101039.28;5042137;28;19931;-85
2023/05/28 04:21:17;;;;;;;;;;;;;;;21.84;61.92;101040.13;5014547;28;19925;-85
2023/05/28 04:23:43;;;;;;;;;;;;;;;21.81;62.60;101050.72;5026440;28;20397;-85
2023/05/28 04:26:09;;;;;;;;;;;;;;;21.82;62.62;101049.84;5043113;28;20080;-86
2023/05/28 04:28:35;;;;;;;;;;;;;;;21.86;62.04;101052.56;5046920;28;19927;-86
2023/05/28 04:31:01;;;;;;;;;;;;;;;21.85;61.98;101048.13;5030818;28;19920;-86
2023/05/28 04:33:30;;;;;;;;;;;;;;;21.85;62.42;101056.09;5030736;28;19948;-87
2023/05/28 04:35:59;;;;;;;;;;;;;;;21.78;62.26;101062.22;5045612;28;19921;-86
2023/05/28 04:38:24;;;;;;;;;;;;;;;21.81;62.10;101056.94;5008479;28;19917;-87
2023/05/28 04:40:50;;;;;;;;;;;;;;;21.74;61.88;101052.44;5031358;28;20393;-86
2023/05/28 04:43:16;;;;;;;;;;;;;;;21.81;61.91;101061.38;5049138;28;19924;-87
2023/05/28 04:45:41;;;;;;;;;;;;;;;21.81;62.13;101054.28;5025642;28;19964;-86
2023/05/28 04:48:07;;;;;;;;;;;;;;;21.80;62.10;101057.81;5024445;28;19924;-86
2023/05/28 04:50:33;;;;;;;;;;;;;;;21.83;62.34;101051.66;5024472;28;20051;-87
2023/05/28 04:52:58;;;;;;;;;;;;;;;21.84;61.99;101056.94;5011572;28;20011;-87
2023/05/28 04:55:23;;;;;;;;;;;;;;;21.79;62.04;101058.69;5027384;28;19921;-86
2023/05/28 04:57:49;;;;;;;;;;;;;;;21.79;61.87;101064.00;5027742;28;19952;-86
2023/05/28 05:00:15;;;;;;;;;;;;;;;21.79;62.06;101056.03;5008248;28;19927;-86
2023/05/28 05:02:43;;;;;;;;;;;;;;;21.79;62.49;101055.13;5023217;28;19921;-86
2023/05/28 05:05:09;;;;;;;;;;;;;;;21.84;62.17;101064.03;5010867;28;20401;-86
2023/05/28 05:07:37;;;;;;;;;;;;;;;21.79;61.64;101058.69;5024956;28;19921;-86
2023/05/28 05:10:09;;;;;;;;;;;;;;;21.79;61.89;101058.69;5024764;28;20414;-86
2023/05/28 05:12:35;;;;;;;;;;;;;;;21.79;61.82;101060.44;5023054;28;20338;-86
2023/05/28 05:15:01;;;;;;;;;;;;;;;21.79;61.95;101064.00;5026092;28;19936;-86
2023/05/28 05:17:26;;;;;;;;;;;;;;;21.72;61.88;101056.81;5024674;28;19928;-86
2023/05/28 05:19:52;;;;;;;;;;;;;;;21.78;62.29;101059.56;5027198;28;20473;-86
2023/05/28 05:22:17;;;;;;;;;;;;;;;21.70;62.17;101067.44;5008644;28;20598;-87
2023/05/28 05:24:43;;;;;;;;;;;;;;;21.73;61.68;101070.13;5010722;28;19925;-85
2023/05/28 05:27:08;;;;;;;;;;;;;;;21.77;62.20;101062.19;5007523;28;19944;-87
2023/05/28 05:29:34;;;;;;;;;;;;;;;21.77;62.22;101068.41;5012198;28;19972;-85
2023/05/28 05:32:00;;;;;;;;;;;;;;;21.78;62.13;101069.28;5022337;28;20020;-87
2023/05/28 05:34:25;;;;;;;;;;;;;;;21.76;62.39;101066.63;5028715;28;20389;-87
2023/05/28 05:36:51;;;;;;;;;;;;;;;21.74;61.86;101065.72;4994829;28;20392;-87
2023/05/28 05:39:16;;;;;;;;;;;;;;;21.78;62.44;101071.94;5023967;28;19918;-86
2023/05/28 05:41:41;;;;;;;;;;;;;;;21.75;62.29;101075.47;5010062;28;19922;-86
2023/05/28 05:44:07;;;;;;;;;;;;;;;21.77;62.39;101070.16;5032485;28;20414;-86
2023/05/28 05:46:33;;;;;;;;;;;;;;;21.73;62.28;101077.19;5011717;28;20039;-86
2023/05/28 05:48:58;;;;;;;;;;;;;;;21.71;62.55;101066.53;5008698;28;19932;-85
2023/05/28 05:51:24;;;;;;;;;;;;;;;21.72;62.03;101070.13;5021873;28;20311;-86
2023/05/28 05:53:49;;;;;;;;;;;;;;;21.75;62.33;101065.72;5026129;28;20443;-86
2023/05/28 05:56:15;;;;;;;;;;;;;;;21.77;62.01;101072.84;5011156;28;19963;-86
2023/05/28 05:58:40;;;;;;;;;;;;;;;21.71;61.46;101077.19;5024701;28;20410;-87
2023/05/28 06:01:06;;;;;;;;;;;;;;;21.68;62.53;101073.59;5026101;28;19978;-86
2023/05/28 06:03:31;;;;;;;;;;;;;;;21.71;62.71;101076.28;5007997;28;20392;-87
2023/05/28 06:05:57;;;;;;;;;;;;;;;21.64;62.27;101082.41;5027909;28;19925;-87
2023/05/28 06:08:22;;;;;;;;;;;;;;;21.73;62.74;101077.19;5022525;28;19983;-85
2023/05/28 06:10:48;;;;;;;;;;;;;;;21.68;62.88;101070.94;5012404;28;19921;-86
2023/05/28 06:13:14;;;;;;;;;;;;;;;21.70;62.88;101078.06;5026898;28;20006;-85
2023/05/28 06:15:39;;;;;;;;;;;;;;;21.75;62.23;101078.13;5010503;28;19930;-85
2023/05/28 06:18:05;;;;;;;;;;;;;;;21.69;62.24;101073.59;5007781;28;19951;-85
2023/05/28 06:20:30;;;;;;;;;;;;;;;21.65;62.64;101077.13;5002866;28;19980;-85
2023/05/28 06:22:56;;;;;;;;;;;;;;;21.64;62.65;101083.28;5007309;28;19928;-85
2023/05/28 06:25:22;;;;;;;;;;;;;;;21.68;62.50;101085.13;5010781;28;19987;-85
2023/05/28 06:27:48;;;;;;;;;;;;;;;21.68;61.82;101077.16;5011348;28;20428;-87
2023/05/28 06:30:14;;;;;;;;;;;;;;;21.68;62.11;101079.81;5025637;28;19923;-86
2023/05/28 06:32:40;;;;;;;;;;;;;;;21.65;61.89;101082.44;5025356;28;20004;-87
2023/05/28 06:35:05;;;;;;;;;;;;;;;21.64;61.98;101083.28;5023568;28;20008;-85
2023/05/28 06:37:31;;;;;;;;;;;;;;;21.65;62.17;101074.47;5008964;28;19944;-86
2023/05/28 06:39:56;;;;;;;;;;;;;;;21.68;61.84;101082.47;5026925;28;19975;-86
2023/05/28 06:42:22;;;;;;;;;;;;;;;21.66;61.85;101078.91;5026812;28;20013;-86
2023/05/28 06:44:47;;;;;;;;;;;;;;;21.64;61.97;101077.09;5036668;28;19931;-87
2023/05/28 06:47:12;;;;;;;;;;;;;;;21.66;61.86;101081.56;5046351;28;20461;-86
2023/05/28 06:49:38;;;;;;;;;;;;;;;21.63;61.77;101083.25;5044935;28;20313;-87
2023/05/28 06:52:05;;;;;;;;;;;;;;;21.61;61.60;101087.66;5043505;28;20440;-88
2023/05/28 06:54:30;;;;;;;;;;;;;;;21.53;61.99;101088.47;5032815;28;19956;-86
2023/05/28 06:56:55;;;;;;;;;;;;;;;21.52;62.06;101086.66;5045183;28;19963;-88
2023/05/28 06:59:21;;;;;;;;;;;;;;;21.50;62.10;101088.41;5028497;28;20278;-87
2023/05/28 07:01:46;;;;;;;;;;;;;;;21.48;62.26;101090.19;5035889;28;19931;-85
2023/05/28 07:04:13;;;;;;;;;;;;;;;21.41;62.59;101093.56;5046199;28;20015;-86
2023/05/28 07:06:38;;;;;;;;;;;;;;;21.39;62.93;101100.63;5027070;28;19931;-86
2023/05/28 07:09:04;;;;;;;;;;;;;;;21.49;62.55;101101.69;5025389;28;19925;-86
2023/05/28 07:11:29;;;;;;;;;;;;;;;21.51;62.66;101103.50;5046459;28;19980;-87
2023/05/28 07:13:55;;;;;;;;;;;;;;;21.54;62.89;101106.19;5030443;28;20389;-86
2023/05/28 07:16:20;;;;;;;;;;;;;;;21.52;62.20;101096.41;5044120;28;19927;-86
2023/05/28 07:18:46;;;;;;;;;;;;;;;21.58;62.43;101101.81;5025900;28;19939;-85
2023/05/28 07:21:12;;;;;;;;;;;;;;;21.57;62.67;101101.78;5011692;28;19928;-86
2023/05/28 07:23:38;;;;;;;;;;;;;;;21.59;62.56;101092.97;5028041;28;19952;-86
2023/05/28 07:26:03;;;;;;;;;;;;;;;21.58;62.38;101096.50;5027719;28;19971;-89
2023/05/28 07:28:29;;;;;;;;;;;;;;;21.60;62.13;101091.22;5022329;28;19924;-86
2023/05/28 07:30:54;;;;;;;;;;;;;;;21.52;62.34;101094.63;5040369;28;19978;-86
2023/05/28 07:33:20;;;;;;;;;;;;;;;21.48;62.41;101092.84;5025860;28;20011;-86
2023/05/28 07:35:45;;;;;;;;;;;;;;;21.55;63.04;101093.81;5022973;28;19972;-86
2023/05/28 07:38:12;;;;;;;;;;;;;;;21.52;62.69;101104.38;5015509;28;19986;-86
2023/05/28 07:40:38;;;;;;;;;;;;;;;21.57;62.77;101101.78;5033978;28;20396;-85
2023/05/28 07:43:03;;;;;;;;;;;;;;;21.58;62.47;101101.81;5033079;28;19933;-87
2023/05/28 07:45:29;;;;;;;;;;;;;;;21.58;62.46;101103.59;5031444;28;19924;-87
2023/05/28 07:47:54;;;;;;;;;;;;;;;21.53;62.74;101103.53;5029713;28;20317;-89
2023/05/28 07:50:20;;;;;;;;;;;;;;;21.53;62.46;101100.88;5032465;28;20536;-87
2023/05/28 07:52:47;;;;;;;;;;;;;;;21.60;62.19;101101.84;5049256;28;19925;-87
2023/05/28 07:55:12;;;;;;;;;;;;;;;21.59;62.27;101098.31;5048168;28;19920;-86
2023/05/28 07:57:38;;;;;;;;;;;;;;;21.53;62.05;101103.53;5030126;28;19967;-87
2023/05/28 08:00:15;;;;;;;;;;;;;;;21.54;62.22;101099.97;5027800;28;19921;-87
2023/05/28 08:02:42;;;;;;;;;;;;;;;21.56;62.29;101103.56;5018397;28;19925;-87
2023/05/28 08:05:08;;;;;;;;;;;;;;;21.57;62.05;101096.47;5014209;28;19927;-87
2023/05/28 08:07:34;;;;;;;;;;;;;;;21.55;61.74;101093.81;5034491;28;19921;-89
2023/05/28 08:09:59;;;;;;;;;;;;;;;21.55;61.79;101086.72;5016696;28;19986;-88
2023/05/28 08:12:25;;;;;;;;;;;;;;;21.53;62.37;101084.91;5032383;28;20466;-87
2023/05/28 08:14:50;;;;;;;;;;;;;;;21.53;61.87;101090.25;5030933;28;20333;-87
2023/05/28 08:17:16;;;;;;;;;;;;;;;21.47;62.01;101088.38;5027072;28;19947;-86
2023/05/28 08:19:42;;;;;;;;;;;;;;;21.52;61.81;101093.75;5047576;28;19921;-86
2023/05/28 08:22:08;;;;;;;;;;;;;;;21.45;62.27;101089.22;5015146;28;20388;-87
2023/05/28 08:24:33;;;;;;;;;;;;;;;21.51;62.17;101097.28;5014413;28;19995;-86
2023/05/28 08:26:59;;;;;;;;;;;;;;;21.51;62.23;101097.28;5028528;28;20071;-85
2023/05/28 08:29:24;;;;;;;;;;;;;;;21.49;62.29;101089.28;5032307;28;19927;-88
2023/05/28 08:31:50;;;;;;;;;;;;;;;21.51;61.98;101084.88;5050732;28;19924;-87
2023/05/28 08:34:16;;;;;;;;;;;;;;;21.45;62.27;101087.47;5048204;28;19921;-87
2023/05/28 08:36:42;;;;;;;;;;;;;;;21.47;62.04;101087.50;5044387;28;19935;-86
2023/05/28 08:39:08;;;;;;;;;;;;;;;21.51;61.87;101084.88;5012120;28;19960;-87
2023/05/28 08:41:34;;;;;;;;;;;;;;;21.47;62.02;101084.84;5027519;28;19925;-87
2023/05/28 08:43:59;;;;;;;;;;;;;;;21.48;61.96;101091.91;5027082;28;19936;-87
2023/05/28 08:46:25;;;;;;;;;;;;;;;21.46;62.17;101081.28;5018686;28;19928;-86
2023/05/28 08:48:51;;;;;;;;;;;;;;;21.50;61.79;101088.41;5026972;28;20459;-86
2023/05/28 08:51:17;;;;;;;;;;;;;;;21.52;61.80;101076.03;5013458;28;19917;-87
2023/05/28 08:53:48;;;;;;;;;;;;;;;21.55;61.76;101084.06;5021457;28;19929;-87
2023/05/28 08:56:14;;;;;;;;;;;;;;;21.46;62.16;101085.69;4996215;28;19930;-87
2023/05/28 08:58:39;;;;;;;;;;;;;;;21.58;61.64;101083.22;5022350;28;19929;-88
2023/05/28 09:01:08;;;;;;;;;;;;;;;21.57;61.63;101084.09;5023409;28;20432;-88
2023/05/28 09:03:34;;;;;;;;;;;;;;;21.57;61.63;101078.78;5004367;28;19928;-87
2023/05/28 09:06:00;;;;;;;;;;;;;;;21.64;61.71;101085.06;5029000;28;19921;-87
2023/05/28 09:08:25;;;;;;;;;;;;;;;21.60;61.45;101086.78;5024213;28;20364;-86
2023/05/28 09:10:51;;;;;;;;;;;;;;;21.61;61.62;101088.59;5033574;28;19925;-89
2023/05/28 09:13:19;;;;;;;;;;;;;;;21.54;61.54;101089.34;5028503;28;19922;-87
2023/05/28 09:15:49;;;;;;;;;;;;;;;21.55;61.70;101076.09;5028146;28;19928;-87
2023/05/28 09:18:18;;;;;;;;;;;;;;;21.56;61.64;101084.94;5028447;28;20405;-88
2023/05/28 09:20:44;;;;;;;;;;;;;;;21.49;62.03;101094.59;5010645;28;19951;-86
2023/05/28 09:23:09;;;;;;;;;;;;;;;21.57;61.79;101102.69;5010213;28;19921;-86
2023/05/28 09:25:35;;;;;;;;;;;;;;;21.58;61.67;101099.16;5011229;28;19921;-87
2023/05/28 09:28:01;;;;;;;;;;;;;;;21.63;61.43;101099.22;5028091;28;20007;-85
2023/05/28 09:30:28;;;;;;;;;;;;;;;21.66;61.36;101105.47;5031561;28;20067;-88
2023/05/28 09:33:04;;;;;;;;;;;;;;;21.61;61.52;101111.59;5011733;28;19922;-87
2023/05/28 09:35:30;;;;;;;;;;;;;;;21.60;61.60;101109.81;5010395;28;19918;-88
2023/05/28 09:37:59;;;;;;;;;;;;;;;21.58;61.39;101103.59;5011038;28;19997;-87
2023/05/28 09:40:25;;;;;;;;;;;;;;;21.62;61.57;101108.97;5010473;28;20318;-85
2023/05/28 09:42:52;;;;;;;;;;;;;;;21.63;61.46;101107.19;5014403;28;19925;-91
2023/05/28 09:45:21;;;;;;;;;;;;;;;21.66;61.24;101112.56;5042134;28;19921;-86
2023/05/28 09:47:47;;;;;;;;;;;;;;;21.61;61.26;101107.19;5030976;28;20378;-86
2023/05/28 09:50:15;;;;;;;;;;;;;;;21.60;61.36;101105.38;5008530;28;19929;-86
2023/05/28 09:52:42;;;;;;;;;;;;;;;21.59;61.35;101111.59;5028917;28;19925;-86
2023/05/28 09:55:08;;;;;;;;;;;;;;;21.64;61.05;101109.88;5025546;28;20281;-86
2023/05/28 09:57:33;;;;;;;;;;;;;;;21.66;60.93;101116.09;5019904;28;19917;-86
2023/05/28 10:00:01;;;;;;;;;;;;;;;21.65;61.03;101111.69;5030444;28;19920;-87
2023/05/28 10:02:45;;;;;;;;;;;;;;;21.65;60.92;101113.41;5014696;28;19917;-84
2023/05/28 10:05:11;;;;;;;;;;;;;;;21.57;61.24;101115.06;5036102;28;20409;-87
2023/05/28 10:07:36;;;;;;;;;;;;;;;21.57;61.19;101104.44;5031404;28;19920;-87
2023/05/28 10:10:02;;;;;;;;;;;;;;;21.60;61.11;101116.00;5025460;28;19923;-88
2023/05/28 10:12:28;;;;;;;;;;;;;;;21.59;61.11;101114.25;5032042;28;20385;-88
2023/05/28 10:14:53;;;;;;;;;;;;;;;21.63;61.10;101107.19;5018789;28;19921;-88
2023/05/28 10:17:19;;;;;;;;;;;;;;;21.56;61.22;101116.84;5049752;28;19974;-88
2023/05/28 10:19:47;;;;;;;;;;;;;;;21.62;60.86;101110.72;5052676;28;20412;-87
2023/05/28 10:22:13;;;;;;;;;;;;;;;21.60;60.90;101112.47;5036101;28;19917;-87
2023/05/28 10:24:38;;;;;;;;;;;;;;;21.56;61.30;101114.19;5036046;28;20024;-89
2023/05/28 10:27:05;;;;;;;;;;;;;;;21.62;61.64;101110.72;5036163;28;19913;-88
2023/05/28 10:29:37;;;;;;;;;;;;;;;21.55;62.83;101115.06;5030576;28;19979;-88
2023/05/28 10:32:02;;;;;;;;;;;;;;;21.49;63.73;101107.00;5036019;28;19913;-91
2023/05/28 10:34:31;;;;;;;;;;;;;;;21.41;63.42;101105.97;5022235;28;19970;-86
2023/05/28 10:36:57;;;;;;;;;;;;;;;21.39;63.64;101102.38;5053416;28;19912;-86
2023/05/28 10:39:22;;;;;;;;;;;;;;;21.43;64.17;101105.13;5033649;28;20054;-89
2023/05/28 10:41:48;;;;;;;;;;;;;;;21.45;63.18;101103.41;5031370;28;20374;-86
2023/05/28 10:44:13;;;;;;;;;;;;;;;21.40;63.44;101102.41;5029971;28;19921;-89
2023/05/28 10:46:39;;;;;;;;;;;;;;;21.51;63.76;101105.25;5030066;28;20024;-86
2023/05/28 10:49:08;;;;;;;;;;;;;;;21.57;64.47;101094.72;5024193;28;19965;-86
2023/05/28 10:51:52;;;;;;;;;;;;;;;21.54;63.40;101092.88;5029477;28;19986;-84
2023/05/28 10:54:22;;;;;;;;;;;;;;;21.55;62.77;101091.16;5013294;28;20361;-85
2023/05/28 10:57:05;;;;;;;;;;;;;;;21.58;62.58;101098.28;4997917;28;19921;-86
2023/05/28 10:59:38;;;;;;;;;;;;;;;21.60;62.32;101097.41;5013316;28;20394;-86
2023/05/28 11:02:03;;;;;;;;;;;;;;;21.65;62.10;101094.81;5022165;28;19925;-86
2023/05/28 11:04:32;;;;;;;;;;;;;;;21.61;62.02;101092.97;5008542;28;19926;-86
2023/05/28 11:06:58;;;;;;;;;;;;;;;21.61;61.97;101091.25;5013571;28;19925;-86
2023/05/28 11:09:23;;;;;;;;;;;;;;;21.62;61.84;101089.47;5026531;28;20305;-86
2023/05/28 11:11:49;;;;;;;;;;;;;;;21.52;62.07;101085.78;5025105;28;20633;-86
2023/05/28 11:14:14;;;;;;;;;;;;;;;21.60;61.86;101077.91;5032074;28;20366;-84
2023/05/28 11:16:40;;;;;;;;;;;;;;;21.64;61.70;101077.97;5027488;28;19924;-85
2023/05/28 11:19:08;;;;;;;;;;;;;;;21.68;61.35;101070.94;5015094;28;19921;-88
2023/05/28 11:21:35;;;;;;;;;;;;;;;21.63;61.48;101072.63;5029591;28;19978;-86
2023/05/28 11:24:04;;;;;;;;;;;;;;;21.64;61.59;101071.78;5031377;28;19940;-86
2023/05/28 11:26:33;;;;;;;;;;;;;;;21.62;61.57;101071.75;5012826;28;19929;-85
2023/05/28 11:28:58;;;;;;;;;;;;;;;21.57;61.76;101062.84;5029606;28;19978;-85
2023/05/28 11:31:24;;;;;;;;;;;;;;;21.58;61.84;101061.94;5028003;28;20015;-86
2023/05/28 11:33:50;;;;;;;;;;;;;;;21.61;61.63;101062.00;5032283;28;19921;-86
2023/05/28 11:36:15;;;;;;;;;;;;;;;21.62;61.63;101058.47;5027236;28;19928;-86
2023/05/28 11:38:41;;;;;;;;;;;;;;;21.62;61.55;101063.78;5032149;28;20443;-86
2023/05/28 11:41:06;;;;;;;;;;;;;;;21.63;61.50;101057.59;5030423;28;19921;-86
2023/05/28 11:43:31;;;;;;;;;;;;;;;21.64;61.57;101056.72;5013318;28;20401;-86
2023/05/28 11:45:58;;;;;;;;;;;;;;;21.64;61.58;101062.03;5020239;28;19921;-85
2023/05/28 11:48:23;;;;;;;;;;;;;;;21.62;61.70;101057.56;5032050;28;20382;-86
2023/05/28 11:50:48;;;;;;;;;;;;;;;21.62;61.73;101055.81;5036831;28;19951;-86
2023/05/28 11:53:35;;;;;;;;;;;;;;;21.67;61.66;101061.16;5035004;28;19921;-86
2023/05/28 11:56:00;;;;;;;;;;;;;;;21.66;61.56;101052.31;5047957;28;19932;-88
2023/05/28 11:58:30;;;;;;;;;;;;;;;21.66;61.58;101052.31;5033970;28;19928;-86
2023/05/28 12:00:55;;;;;;;;;;;;;;;21.69;61.40;101055.00;5053167;28;19916;-87
2023/05/28 12:03:21;;;;;;;;;;;;;;;21.74;61.39;101047.09;5034778;28;20292;-86
2023/05/28 12:05:47;;;;;;;;;;;;;;;21.71;61.57;101052.38;5052969;28;19917;-86
2023/05/28 12:08:12;;;;;;;;;;;;;;;21.66;61.84;101048.78;5051993;28;19966;-86
2023/05/28 12:10:37;;;;;;;;;;;;;;;21.66;61.73;101047.00;5034785;28;19925;-87
2023/05/28 12:13:05;;;;;;;;;;;;;;;21.66;61.85;101040.78;5034474;28;20389;-86
2023/05/28 12:15:30;;;;;;;;;;;;;;;21.65;61.91;101042.56;5035955;28;19924;-86
2023/05/28 12:17:56;;;;;;;;;;;;;;;21.68;61.67;101044.38;5029619;28;19921;-86
2023/05/28 12:20:22;;;;;;;;;;;;;;;21.64;62.18;101043.44;5047290;28;19990;-85
2023/05/28 12:22:59;;;;;;;;;;;;;;;21.61;62.32;101039.81;5052331;28;20442;-85
2023/05/28 12:25:24;;;;;;;;;;;;;;;21.64;62.09;101034.56;5035755;28;19917;-85
2023/05/28 12:27:50;;;;;;;;;;;;;;;21.69;61.93;101032.84;5053649;28;19970;-85
2023/05/28 12:30:15;;;;;;;;;;;;;;;21.74;61.63;101028.50;5034483;28;19920;-85
2023/05/28 12:32:40;;;;;;;;;;;;;;;21.77;61.78;101028.53;5051958;28;19921;-85
2023/05/28 12:35:08;;;;;;;;;;;;;;;21.75;61.82;101030.28;5033961;28;20360;-85